WARNING - Please set your current conddition source. Defaulted to metar

Welkom op de weersite van Veghel e.o.

Voor vele een welkome verandering , het regent weer.

Temperatuur weer onder 25 graden dus;

Einde aan de hittegolf 2018.

Deze begon op 12 juli t/m 8 augustus totaal van 28 dagen.

Het warmst was het op 26 en 27 juli met 36.6 graden.


Webcam Veghel  Webcam Veghel


Onweer radar Meer informatie blitzortung!


Regen radar Meer informatie rain snow radar


U vindt ons ook hier:

Het Weer Aktueel

European Weather Network

Weather Underground

Benelux Weer Netwerk

AWEKAS


Het weer levert geen direct gevaar op.    Er zijn geen waarschuwingen afgegeven.

METAR rapporten vliegvelden

   
EHAM - Amsterdam
Gewijzigd: 20-09-2018 20:25
Helder  
Helder  
   Wind: ZW 11.1 km/h
Wind: ZW 11.1 km/h
Temperatuur: 18°C
Dauwpunt: 15°C
Vochtigheid: 83%
Barometer: 1010 hPa
Zicht: meer dan 10 km
Bewolking: Helder ft
EHAM 201825Z 23006KT CAVOK 18/15 Q1010 NOSIG
EHEH - Eindhoven
Gewijzigd: 20-09-2018 20:25
Bewolking  
Bewolking  
   Wind: Zuiden 9.3 km/h
Wind: Zuiden 9.3 km/h
Temperatuur: 21°C
Dauwpunt: 13°C
Vochtigheid: 60%
Barometer: 1011 hPa
Bewolking: Overcast
Zicht: meer dan 10 km
Bewolking: Bewolking 19000 ft
EHEH 201825Z AUTO 18005KT 9999 OVC190 21/13 Q1011 BLU 19009KT CAVOK
EHGR - Gilze/Rijen
Gewijzigd: 20-09-2018 20:25
Bewolking  
Bewolking  
   Wind: Zuiden 9.3 km/h
Wind: Zuiden 9.3 km/h
Temperatuur: 20°C
Dauwpunt: 13°C
Vochtigheid: 64%
Barometer: 1011 hPa
Bewolking: Overcast
Zicht: meer dan 10 km
Bewolking: Bewolking 17000 ft
EHGR 201825Z AUTO 19005KT 140V210 9999 OVC170 20/13 Q1011 BLU 20005KT CAVOK
EHBK - Maastricht
Gewijzigd: 20-09-2018 20:25
Gedeeltelijk bewolkt  
Gedeeltelijk bewolkt  
   Wind: ZZW 18.5 km/h
Wind: ZZW 18.5 km/h
Temperatuur: 22°C
Dauwpunt: 11°C
Vochtigheid: 50%
Barometer: 1012 hPa
Bewolking: Partly Cloudy
Zicht: meer dan 10 km
Bewolking: Gedeeltelijk bewolkt ft
EHBK 201825Z AUTO 20010KT 9999 NSC 22/11 Q1012 NOSIG
EHVK - Volkel
Gewijzigd: 20-09-2018 20:25
Bewolking  
Bewolking  
   Wind: Zuiden 11.1 km/h
Wind: Zuiden 11.1 km/h
Temperatuur: 21°C
Dauwpunt: 13°C
Vochtigheid: 60%
Barometer: 1011 hPa
Bewolking: Overcast
Zicht: meer dan 10 km
Bewolking: Bewolking 25000 ft
EHVK 201825Z AUTO 19006KT 160V220 9999 OVC250 21/13 Q1011 BLU
EHFS - Vlissingen
Gewijzigd: 20-09-2018 20:25
Gedeeltelijk bewolkt  
Gedeeltelijk bewolkt  
   Wind: Zuiden 22.2 km/h
Wind: Zuiden 22.2 km/h
Temperatuur: 20°C
Dauwpunt: 16°C
Vochtigheid: 78%
Barometer: 1010 hPa
Bewolking: Partly Cloudy
Zicht: meer dan 10 km
Bewolking: Gedeeltelijk bewolkt ft
EHFS 201825Z AUTO 19012KT 9999 NSC 20/16 Q1010 W///H///

Script ontwikkeld door  Saratoga-weather.org Aangepast voor de template door  Weerstation Leuven

Apparatuur in gebruik:

Weerstation
Davis VP2

Weerprogramma
WeatherLink

Weercomputer
Sponsor

Webleverancier
My provider

Davis VP2

WeatherLink

Sponsor

My provider